sensor_id;sensor_type;location;lat;lon;timestamp;temperature;humidity
52656;SHT85;35474;51.032;6.998;2024-03-23T00:54:36;8.03;92.15
52656;SHT85;35474;51.032;6.998;2024-03-23T01:00:34;8.09;92.80
52656;SHT85;35474;51.032;6.998;2024-03-23T01:03:00;8.22;92.81
52656;SHT85;35474;51.032;6.998;2024-03-23T01:05:26;8.16;92.44
52656;SHT85;35474;51.032;6.998;2024-03-23T01:07:52;7.92;92.49
52656;SHT85;35474;51.032;6.998;2024-03-23T01:10:18;8.02;91.97
52656;SHT85;35474;51.032;6.998;2024-03-23T01:12:43;7.79;91.85
52656;SHT85;35474;51.032;6.998;2024-03-23T01:15:09;7.68;91.98
52656;SHT85;35474;51.032;6.998;2024-03-23T01:17:34;7.77;91.85
52656;SHT85;35474;51.032;6.998;2024-03-23T01:20:00;7.67;92.00
52656;SHT85;35474;51.032;6.998;2024-03-23T01:22:26;7.61;92.13
52656;SHT85;35474;51.032;6.998;2024-03-23T01:24:52;7.60;92.34
52656;SHT85;35474;51.032;6.998;2024-03-23T01:27:18;7.65;92.21
52656;SHT85;35474;51.032;6.998;2024-03-23T01:29:43;7.58;91.90
52656;SHT85;35474;51.032;6.998;2024-03-23T01:32:09;7.64;91.60
52656;SHT85;35474;51.032;6.998;2024-03-23T01:34:35;7.58;91.71
52656;SHT85;35474;51.032;6.998;2024-03-23T01:37:01;7.51;91.46
52656;SHT85;35474;51.032;6.998;2024-03-23T01:39:26;7.39;91.56
52656;SHT85;35474;51.032;6.998;2024-03-23T01:41:52;7.48;91.50
52656;SHT85;35474;51.032;6.998;2024-03-23T01:44:18;7.43;91.50
52656;SHT85;35474;51.032;6.998;2024-03-23T01:46:44;7.43;91.21
52656;SHT85;35474;51.032;6.998;2024-03-23T01:49:09;7.39;90.96
52656;SHT85;35474;51.032;6.998;2024-03-23T01:51:36;7.37;91.20
52656;SHT85;35474;51.032;6.998;2024-03-23T01:54:02;7.40;91.00
52656;SHT85;35474;51.032;6.998;2024-03-23T01:56:29;7.42;91.17
52656;SHT85;35474;51.032;6.998;2024-03-23T01:58:55;7.47;91.18
52656;SHT85;35474;51.032;6.998;2024-03-23T02:01:21;7.37;91.03
52656;SHT85;35474;51.032;6.998;2024-03-23T02:03:47;7.35;90.85
52656;SHT85;35474;51.032;6.998;2024-03-23T02:06:12;7.31;90.64
52656;SHT85;35474;51.032;6.998;2024-03-23T02:08:39;7.22;90.67
52656;SHT85;35474;51.032;6.998;2024-03-23T02:11:06;7.28;91.10
52656;SHT85;35474;51.032;6.998;2024-03-23T02:13:31;7.33;91.03
52656;SHT85;35474;51.032;6.998;2024-03-23T02:15:58;7.30;90.57
52656;SHT85;35474;51.032;6.998;2024-03-23T02:18:24;7.33;90.50
52656;SHT85;35474;51.032;6.998;2024-03-23T02:20:49;7.20;90.23
52656;SHT85;35474;51.032;6.998;2024-03-23T02:23:15;7.19;90.86
52656;SHT85;35474;51.032;6.998;2024-03-23T02:25:42;7.12;90.81
52656;SHT85;35474;51.032;6.998;2024-03-23T02:28:07;7.17;91.10
52656;SHT85;35474;51.032;6.998;2024-03-23T02:30:33;7.14;90.35
52656;SHT85;35474;51.032;6.998;2024-03-23T02:32:59;7.05;88.74
52656;SHT85;35474;51.032;6.998;2024-03-23T02:35:25;7.02;88.53
52656;SHT85;35474;51.032;6.998;2024-03-23T02:37:50;6.78;88.64
52656;SHT85;35474;51.032;6.998;2024-03-23T02:40:16;6.79;88.92
52656;SHT85;35474;51.032;6.998;2024-03-23T02:42:42;6.75;88.11
52656;SHT85;35474;51.032;6.998;2024-03-23T02:45:08;6.74;88.32
52656;SHT85;35474;51.032;6.998;2024-03-23T02:47:34;6.69;88.50
52656;SHT85;35474;51.032;6.998;2024-03-23T02:50:00;6.67;88.51
52656;SHT85;35474;51.032;6.998;2024-03-23T02:52:25;6.63;88.86
52656;SHT85;35474;51.032;6.998;2024-03-23T02:54:51;6.61;89.08
52656;SHT85;35474;51.032;6.998;2024-03-23T02:57:17;6.51;89.47
52656;SHT85;35474;51.032;6.998;2024-03-23T02:59:42;6.55;89.67
52656;SHT85;35474;51.032;6.998;2024-03-23T03:02:08;6.52;89.80
52656;SHT85;35474;51.032;6.998;2024-03-23T03:04:33;6.41;89.46
52656;SHT85;35474;51.032;6.998;2024-03-23T03:06:59;6.40;89.99
52656;SHT85;35474;51.032;6.998;2024-03-23T03:09:25;6.33;90.30
52656;SHT85;35474;51.032;6.998;2024-03-23T03:11:51;6.20;90.24
52656;SHT85;35474;51.032;6.998;2024-03-23T03:14:16;6.28;90.79
52656;SHT85;35474;51.032;6.998;2024-03-23T03:16:42;6.34;90.39
52656;SHT85;35474;51.032;6.998;2024-03-23T03:19:08;6.33;90.58
52656;SHT85;35474;51.032;6.998;2024-03-23T03:21:34;6.27;90.70
52656;SHT85;35474;51.032;6.998;2024-03-23T03:24:00;6.24;90.44
52656;SHT85;35474;51.032;6.998;2024-03-23T03:26:25;6.27;90.57
52656;SHT85;35474;51.032;6.998;2024-03-23T03:28:51;6.24;90.78
52656;SHT85;35474;51.032;6.998;2024-03-23T03:31:17;6.16;90.45
52656;SHT85;35474;51.032;6.998;2024-03-23T03:33:43;6.16;90.55
52656;SHT85;35474;51.032;6.998;2024-03-23T03:36:09;6.03;90.47
52656;SHT85;35474;51.032;6.998;2024-03-23T03:38:35;6.10;90.90
52656;SHT85;35474;51.032;6.998;2024-03-23T03:41:04;6.10;90.95
52656;SHT85;35474;51.032;6.998;2024-03-23T03:43:31;6.13;90.61
52656;SHT85;35474;51.032;6.998;2024-03-23T03:45:57;6.09;90.37
52656;SHT85;35474;51.032;6.998;2024-03-23T03:48:24;6.11;90.79
52656;SHT85;35474;51.032;6.998;2024-03-23T03:50:50;6.24;90.71
52656;SHT85;35474;51.032;6.998;2024-03-23T03:53:16;6.24;90.60
52656;SHT85;35474;51.032;6.998;2024-03-23T03:55:41;6.23;90.67
52656;SHT85;35474;51.032;6.998;2024-03-23T03:58:07;6.02;90.32
52656;SHT85;35474;51.032;6.998;2024-03-23T04:00:33;6.03;90.64
52656;SHT85;35474;51.032;6.998;2024-03-23T04:02:58;6.07;91.15
52656;SHT85;35474;51.032;6.998;2024-03-23T04:05:24;6.16;91.26
52656;SHT85;35474;51.032;6.998;2024-03-23T04:07:49;6.23;91.32
52656;SHT85;35474;51.032;6.998;2024-03-23T04:10:15;6.21;91.14
52656;SHT85;35474;51.032;6.998;2024-03-23T04:12:41;6.00;90.13
52656;SHT85;35474;51.032;6.998;2024-03-23T04:15:07;5.90;89.53
52656;SHT85;35474;51.032;6.998;2024-03-23T04:17:33;5.95;89.82
52656;SHT85;35474;51.032;6.998;2024-03-23T04:19:59;6.07;90.23
52656;SHT85;35474;51.032;6.998;2024-03-23T04:22:26;6.06;90.02
52656;SHT85;35474;51.032;6.998;2024-03-23T04:24:53;6.00;90.09
52656;SHT85;35474;51.032;6.998;2024-03-23T04:27:19;5.99;89.78
52656;SHT85;35474;51.032;6.998;2024-03-23T04:29:48;6.03;90.01
52656;SHT85;35474;51.032;6.998;2024-03-23T04:32:17;6.03;89.66
52656;SHT85;35474;51.032;6.998;2024-03-23T04:34:43;6.16;90.01
52656;SHT85;35474;51.032;6.998;2024-03-23T04:37:09;6.00;89.23
52656;SHT85;35474;51.032;6.998;2024-03-23T04:39:36;6.00;89.03
52656;SHT85;35474;51.032;6.998;2024-03-23T04:42:04;6.02;89.54
52656;SHT85;35474;51.032;6.998;2024-03-23T04:44:30;5.96;89.40
52656;SHT85;35474;51.032;6.998;2024-03-23T04:46:57;6.00;89.84
52656;SHT85;35474;51.032;6.998;2024-03-23T04:49:22;5.97;89.96
52656;SHT85;35474;51.032;6.998;2024-03-23T04:51:48;5.83;90.08
52656;SHT85;35474;51.032;6.998;2024-03-23T04:54:13;5.85;90.31
52656;SHT85;35474;51.032;6.998;2024-03-23T04:56:39;5.90;90.91
52656;SHT85;35474;51.032;6.998;2024-03-23T04:59:05;5.89;90.87
52656;SHT85;35474;51.032;6.998;2024-03-23T05:01:34;5.86;90.41
52656;SHT85;35474;51.032;6.998;2024-03-23T05:03:59;5.85;90.79
52656;SHT85;35474;51.032;6.998;2024-03-23T05:06:25;5.87;90.63
52656;SHT85;35474;51.032;6.998;2024-03-23T05:08:51;5.93;90.66
52656;SHT85;35474;51.032;6.998;2024-03-23T05:11:17;5.85;90.13
52656;SHT85;35474;51.032;6.998;2024-03-23T05:13:43;5.85;89.18
52656;SHT85;35474;51.032;6.998;2024-03-23T05:16:09;5.85;89.08
52656;SHT85;35474;51.032;6.998;2024-03-23T05:18:35;5.82;89.50
52656;SHT85;35474;51.032;6.998;2024-03-23T05:21:00;5.90;89.08
52656;SHT85;35474;51.032;6.998;2024-03-23T05:23:27;5.90;89.83
52656;SHT85;35474;51.032;6.998;2024-03-23T05:25:53;5.89;89.60
52656;SHT85;35474;51.032;6.998;2024-03-23T05:28:20;5.93;89.63
52656;SHT85;35474;51.032;6.998;2024-03-23T05:30:55;5.80;89.95
52656;SHT85;35474;51.032;6.998;2024-03-23T05:33:22;5.86;90.51
52656;SHT85;35474;51.032;6.998;2024-03-23T05:35:55;5.85;90.54
52656;SHT85;35474;51.032;6.998;2024-03-23T05:38:22;5.90;90.32
52656;SHT85;35474;51.032;6.998;2024-03-23T05:40:57;5.90;90.06
52656;SHT85;35474;51.032;6.998;2024-03-23T05:43:24;5.87;90.16
52656;SHT85;35474;51.032;6.998;2024-03-23T05:45:57;5.79;90.27
52656;SHT85;35474;51.032;6.998;2024-03-23T05:48:24;5.86;90.41
52656;SHT85;35474;51.032;6.998;2024-03-23T05:50:50;5.92;90.62
52656;SHT85;35474;51.032;6.998;2024-03-23T05:53:16;5.82;90.26
52656;SHT85;35474;51.032;6.998;2024-03-23T05:55:43;5.83;90.47
52656;SHT85;35474;51.032;6.998;2024-03-23T05:58:09;5.89;90.44
52656;SHT85;35474;51.032;6.998;2024-03-23T06:00:35;5.90;90.31
52656;SHT85;35474;51.032;6.998;2024-03-23T06:03:01;5.97;90.33
52656;SHT85;35474;51.032;6.998;2024-03-23T06:05:26;5.95;90.27
52656;SHT85;35474;51.032;6.998;2024-03-23T06:07:52;5.96;90.15
52656;SHT85;35474;51.032;6.998;2024-03-23T06:10:18;6.06;90.31
52656;SHT85;35474;51.032;6.998;2024-03-23T06:12:45;6.06;89.74
52656;SHT85;35474;51.032;6.998;2024-03-23T06:15:11;6.04;89.88
52656;SHT85;35474;51.032;6.998;2024-03-23T06:17:37;6.06;89.48
52656;SHT85;35474;51.032;6.998;2024-03-23T06:20:03;6.10;89.72
52656;SHT85;35474;51.032;6.998;2024-03-23T06:22:31;6.16;89.28
52656;SHT85;35474;51.032;6.998;2024-03-23T06:24:57;6.17;89.70
52656;SHT85;35474;51.032;6.998;2024-03-23T06:27:22;6.17;89.66
52656;SHT85;35474;51.032;6.998;2024-03-23T06:29:48;6.13;89.52
52656;SHT85;35474;51.032;6.998;2024-03-23T06:32:14;6.07;89.59
52656;SHT85;35474;51.032;6.998;2024-03-23T06:34:42;6.10;89.97
52656;SHT85;35474;51.032;6.998;2024-03-23T06:37:08;5.97;89.46
52656;SHT85;35474;51.032;6.998;2024-03-23T06:39:35;6.11;89.66
52656;SHT85;35474;51.032;6.998;2024-03-23T06:42:02;6.09;89.57
52656;SHT85;35474;51.032;6.998;2024-03-23T06:44:27;6.04;89.60
52656;SHT85;35474;51.032;6.998;2024-03-23T06:46:53;5.96;89.49
52656;SHT85;35474;51.032;6.998;2024-03-23T06:49:18;5.92;89.60
52656;SHT85;35474;51.032;6.998;2024-03-23T06:51:44;5.92;89.52
52656;SHT85;35474;51.032;6.998;2024-03-23T06:54:10;5.92;89.29
52656;SHT85;35474;51.032;6.998;2024-03-23T06:56:36;5.99;89.78
52656;SHT85;35474;51.032;6.998;2024-03-23T06:59:02;6.03;89.01
52656;SHT85;35474;51.032;6.998;2024-03-23T07:01:27;6.16;89.09
52656;SHT85;35474;51.032;6.998;2024-03-23T07:03:54;6.16;88.57
52656;SHT85;35474;51.032;6.998;2024-03-23T07:06:20;6.18;88.72
52656;SHT85;35474;51.032;6.998;2024-03-23T07:08:45;6.24;88.59
52656;SHT85;35474;51.032;6.998;2024-03-23T07:11:11;6.27;88.29
52656;SHT85;35474;51.032;6.998;2024-03-23T07:13:37;6.41;88.49
52656;SHT85;35474;51.032;6.998;2024-03-23T07:16:02;6.55;88.33
52656;SHT85;35474;51.032;6.998;2024-03-23T07:18:28;6.78;87.22
52656;SHT85;35474;51.032;6.998;2024-03-23T07:20:57;6.74;86.69
52656;SHT85;35474;51.032;6.998;2024-03-23T07:23:23;6.72;86.71
52656;SHT85;35474;51.032;6.998;2024-03-23T07:25:57;6.85;87.38
52656;SHT85;35474;51.032;6.998;2024-03-23T07:28:22;7.09;86.62
52656;SHT85;35474;51.032;6.998;2024-03-23T07:32:35;7.28;85.77
52656;SHT85;35474;51.032;6.998;2024-03-23T07:35:01;7.16;84.87
52656;SHT85;35474;51.032;6.998;2024-03-23T07:37:27;7.20;86.09
52656;SHT85;35474;51.032;6.998;2024-03-23T07:39:52;7.46;85.33
52656;SHT85;35474;51.032;6.998;2024-03-23T07:42:18;7.55;84.33
52656;SHT85;35474;51.032;6.998;2024-03-23T07:44:43;7.84;84.45
52656;SHT85;35474;51.032;6.998;2024-03-23T07:47:09;7.96;83.59
52656;SHT85;35474;51.032;6.998;2024-03-23T07:49:34;8.09;82.60
52656;SHT85;35474;51.032;6.998;2024-03-23T07:52:00;8.05;82.15
52656;SHT85;35474;51.032;6.998;2024-03-23T07:54:25;7.75;82.62
52656;SHT85;35474;51.032;6.998;2024-03-23T07:56:51;7.86;83.39
52656;SHT85;35474;51.032;6.998;2024-03-23T07:59:16;7.96;82.18
52656;SHT85;35474;51.032;6.998;2024-03-23T08:01:43;8.29;81.91
52656;SHT85;35474;51.032;6.998;2024-03-23T08:04:09;8.59;80.87
52656;SHT85;35474;51.032;6.998;2024-03-23T08:06:34;8.09;81.52
52656;SHT85;35474;51.032;6.998;2024-03-23T08:09:00;8.18;80.82
52656;SHT85;35474;51.032;6.998;2024-03-23T08:11:26;8.80;79.35
52656;SHT85;35474;51.032;6.998;2024-03-23T08:13:52;9.05;79.21
52656;SHT85;35474;51.032;6.998;2024-03-23T08:16:18;8.70;77.75
52656;SHT85;35474;51.032;6.998;2024-03-23T08:18:44;8.84;77.87
52656;SHT85;35474;51.032;6.998;2024-03-23T08:21:09;9.35;76.27
52656;SHT85;35474;51.032;6.998;2024-03-23T08:23:35;8.91;76.25
52656;SHT85;35474;51.032;6.998;2024-03-23T08:26:03;9.18;75.58
52656;SHT85;35474;51.032;6.998;2024-03-23T08:28:30;9.64;74.58
52656;SHT85;35474;51.032;6.998;2024-03-23T08:30:56;9.42;72.26
52656;SHT85;35474;51.032;6.998;2024-03-23T08:33:22;9.62;70.80
52656;SHT85;35474;51.032;6.998;2024-03-23T08:35:56;9.39;72.91
52656;SHT85;35474;51.032;6.998;2024-03-23T08:38:23;8.89;71.82
52656;SHT85;35474;51.032;6.998;2024-03-23T08:41:05;8.67;72.31
52656;SHT85;35474;51.032;6.998;2024-03-23T08:43:35;8.87;72.16
52656;SHT85;35474;51.032;6.998;2024-03-23T08:46:09;9.19;70.91
52656;SHT85;35474;51.032;6.998;2024-03-23T08:48:40;9.84;69.32
52656;SHT85;35474;51.032;6.998;2024-03-23T08:51:09;10.01;68.18
52656;SHT85;35474;51.032;6.998;2024-03-23T08:53:35;9.79;68.37
52656;SHT85;35474;51.032;6.998;2024-03-23T08:56:01;9.01;69.74
52656;SHT85;35474;51.032;6.998;2024-03-23T08:58:28;9.25;70.51
52656;SHT85;35474;51.032;6.998;2024-03-23T09:00:55;9.53;68.89
52656;SHT85;35474;51.032;6.998;2024-03-23T09:03:24;9.43;70.22
52656;SHT85;35474;51.032;6.998;2024-03-23T09:05:51;9.00;71.36
52656;SHT85;35474;51.032;6.998;2024-03-23T09:08:17;9.11;71.48
52656;SHT85;35474;51.032;6.998;2024-03-23T09:10:43;9.67;70.30
52656;SHT85;35474;51.032;6.998;2024-03-23T09:13:09;9.01;72.00
52656;SHT85;35474;51.032;6.998;2024-03-23T09:15:35;9.38;72.04
52656;SHT85;35474;51.032;6.998;2024-03-23T09:18:02;9.29;71.61
52656;SHT85;35474;51.032;6.998;2024-03-23T09:20:28;10.26;69.41
52656;SHT85;35474;51.032;6.998;2024-03-23T09:22:54;10.00;67.62
52656;SHT85;35474;51.032;6.998;2024-03-23T09:25:19;9.77;68.97
52656;SHT85;35474;51.032;6.998;2024-03-23T09:27:48;9.43;70.19
52656;SHT85;35474;51.032;6.998;2024-03-23T09:30:14;10.01;69.05
52656;SHT85;35474;51.032;6.998;2024-03-23T09:32:41;10.25;67.04
52656;SHT85;35474;51.032;6.998;2024-03-23T09:35:08;10.75;65.70
52656;SHT85;35474;51.032;6.998;2024-03-23T09:37:34;9.93;67.13
52656;SHT85;35474;51.032;6.998;2024-03-23T09:40:00;10.01;66.37
52656;SHT85;35474;51.032;6.998;2024-03-23T09:42:25;10.15;66.33
52656;SHT85;35474;51.032;6.998;2024-03-23T09:44:51;9.69;66.12
52656;SHT85;35474;51.032;6.998;2024-03-23T09:47:17;10.02;66.09
52656;SHT85;35474;51.032;6.998;2024-03-23T09:49:43;9.91;64.81
52656;SHT85;35474;51.032;6.998;2024-03-23T09:52:09;9.74;64.38
52656;SHT85;35474;51.032;6.998;2024-03-23T09:54:35;9.60;65.84
52656;SHT85;35474;51.032;6.998;2024-03-23T09:57:01;9.80;66.07
52656;SHT85;35474;51.032;6.998;2024-03-23T09:59:27;9.83;64.37
52656;SHT85;35474;51.032;6.998;2024-03-23T10:01:53;9.86;64.39
52656;SHT85;35474;51.032;6.998;2024-03-23T10:04:38;9.54;63.60
52656;SHT85;35474;51.032;6.998;2024-03-23T10:07:14;9.76;61.25
52656;SHT85;35474;51.032;6.998;2024-03-23T10:09:48;9.10;62.44
52656;SHT85;35474;51.032;6.998;2024-03-23T10:12:17;9.32;63.47
52656;SHT85;35474;51.032;6.998;2024-03-23T10:14:43;10.46;62.19
52656;SHT85;35474;51.032;6.998;2024-03-23T10:17:22;10.77;60.35
52656;SHT85;35474;51.032;6.998;2024-03-23T10:19:51;10.38;59.48
52656;SHT85;35474;51.032;6.998;2024-03-23T10:22:21;10.87;58.32
52656;SHT85;35474;51.032;6.998;2024-03-23T10:24:50;11.90;57.14
52656;SHT85;35474;51.032;6.998;2024-03-23T10:27:16;11.00;56.19
52656;SHT85;35474;51.032;6.998;2024-03-23T10:29:45;11.34;55.67
52656;SHT85;35474;51.032;6.998;2024-03-23T10:32:12;10.62;57.92
52656;SHT85;35474;51.032;6.998;2024-03-23T10:34:39;10.15;58.07
52656;SHT85;35474;51.032;6.998;2024-03-23T10:37:05;10.08;59.10
52656;SHT85;35474;51.032;6.998;2024-03-23T10:39:35;9.80;60.33
52656;SHT85;35474;51.032;6.998;2024-03-23T10:42:02;9.47;60.53
52656;SHT85;35474;51.032;6.998;2024-03-23T10:44:29;8.71;65.31
52656;SHT85;35474;51.032;6.998;2024-03-23T10:46:59;8.34;66.85
52656;SHT85;35474;51.032;6.998;2024-03-23T10:49:29;8.18;66.21
52656;SHT85;35474;51.032;6.998;2024-03-23T10:52:03;8.23;66.13
52656;SHT85;35474;51.032;6.998;2024-03-23T10:54:31;8.15;65.10
52656;SHT85;35474;51.032;6.998;2024-03-23T10:56:59;8.15;65.02
52656;SHT85;35474;51.032;6.998;2024-03-23T10:59:29;7.55;66.78
52656;SHT85;35474;51.032;6.998;2024-03-23T11:01:59;7.58;67.43
52656;SHT85;35474;51.032;6.998;2024-03-23T11:04:37;7.51;67.03
52656;SHT85;35474;51.032;6.998;2024-03-23T11:07:49;7.55;67.64
52656;SHT85;35474;51.032;6.998;2024-03-23T11:09:50;7.67;68.69
52656;SHT85;35474;51.032;6.998;2024-03-23T11:14:56;7.19;73.91
52656;SHT85;35474;51.032;6.998;2024-03-23T11:17:24;7.46;74.38
52656;SHT85;35474;51.032;6.998;2024-03-23T11:19:54;7.23;74.22
52656;SHT85;35474;51.032;6.998;2024-03-23T11:25:24;6.92;72.60
52656;SHT85;35474;51.032;6.998;2024-03-23T11:30:19;6.63;73.31
52656;SHT85;35474;51.032;6.998;2024-03-23T11:33:03;6.61;72.91
52656;SHT85;35474;51.032;6.998;2024-03-23T11:35:30;6.74;71.78
52656;SHT85;35474;51.032;6.998;2024-03-23T11:38:12;7.03;71.81
52656;SHT85;35474;51.032;6.998;2024-03-23T11:40:40;8.60;66.08
52656;SHT85;35474;51.032;6.998;2024-03-23T11:43:12;8.68;66.13
52656;SHT85;35474;51.032;6.998;2024-03-23T11:48:14;9.28;62.54
52656;SHT85;35474;51.032;6.998;2024-03-23T11:50:41;9.86;61.50
52656;SHT85;35474;51.032;6.998;2024-03-23T11:53:21;8.97;63.31
52656;SHT85;35474;51.032;6.998;2024-03-23T11:55:51;9.08;65.56
52656;SHT85;35474;51.032;6.998;2024-03-23T11:58:19;9.39;64.50
52656;SHT85;35474;51.032;6.998;2024-03-23T12:00:57;10.14;62.31
52656;SHT85;35474;51.032;6.998;2024-03-23T12:03:24;10.37;60.30
52656;SHT85;35474;51.032;6.998;2024-03-23T12:06:01;10.08;63.14
52656;SHT85;35474;51.032;6.998;2024-03-23T12:10:54;10.35;63.30
52656;SHT85;35474;51.032;6.998;2024-03-23T12:13:30;10.65;62.84
52656;SHT85;35474;51.032;6.998;2024-03-23T12:15:58;10.45;62.24
52656;SHT85;35474;51.032;6.998;2024-03-23T12:18:34;10.80;62.39
52656;SHT85;35474;51.032;6.998;2024-03-23T12:21:00;10.38;64.69
52656;SHT85;35474;51.032;6.998;2024-03-23T12:23:25;9.33;62.55
52656;SHT85;35474;51.032;6.998;2024-03-23T12:25:51;9.60;63.16
52656;SHT85;35474;51.032;6.998;2024-03-23T12:28:16;9.83;62.04
52656;SHT85;35474;51.032;6.998;2024-03-23T12:30:42;10.04;61.60
52656;SHT85;35474;51.032;6.998;2024-03-23T12:33:08;9.76;62.64
52656;SHT85;35474;51.032;6.998;2024-03-23T12:35:33;8.28;67.88
52656;SHT85;35474;51.032;6.998;2024-03-23T12:37:59;7.44;73.30
52656;SHT85;35474;51.032;6.998;2024-03-23T12:40:25;6.76;74.65
52656;SHT85;35474;51.032;6.998;2024-03-23T12:42:52;6.65;75.85
52656;SHT85;35474;51.032;6.998;2024-03-23T12:45:18;6.11;76.27
52656;SHT85;35474;51.032;6.998;2024-03-23T12:47:44;5.65;79.40
52656;SHT85;35474;51.032;6.998;2024-03-23T12:50:09;5.24;81.54
52656;SHT85;35474;51.032;6.998;2024-03-23T12:52:35;5.20;83.86
52656;SHT85;35474;51.032;6.998;2024-03-23T12:55:01;5.35;84.90
52656;SHT85;35474;51.032;6.998;2024-03-23T12:57:29;5.62;84.29
52656;SHT85;35474;51.032;6.998;2024-03-23T12:59:54;6.27;85.71
52656;SHT85;35474;51.032;6.998;2024-03-23T13:02:20;7.64;82.77
52656;SHT85;35474;51.032;6.998;2024-03-23T13:04:50;9.39;77.31
52656;SHT85;35474;51.032;6.998;2024-03-23T13:07:17;9.39;71.75
52656;SHT85;35474;51.032;6.998;2024-03-23T13:09:43;9.08;69.43
52656;SHT85;35474;51.032;6.998;2024-03-23T13:12:09;10.28;68.77
52656;SHT85;35474;51.032;6.998;2024-03-23T13:14:35;10.17;64.41
52656;SHT85;35474;51.032;6.998;2024-03-23T13:17:00;10.20;63.03
52656;SHT85;35474;51.032;6.998;2024-03-23T13:19:28;10.62;62.99
52656;SHT85;35474;51.032;6.998;2024-03-23T13:21:56;10.31;61.19
52656;SHT85;35474;51.032;6.998;2024-03-23T13:24:25;10.38;62.29
52656;SHT85;35474;51.032;6.998;2024-03-23T13:26:52;10.33;61.70
52656;SHT85;35474;51.032;6.998;2024-03-23T13:29:19;10.97;60.49
52656;SHT85;35474;51.032;6.998;2024-03-23T13:31:45;10.46;60.62
52656;SHT85;35474;51.032;6.998;2024-03-23T13:34:12;11.04;58.86
52656;SHT85;35474;51.032;6.998;2024-03-23T13:36:43;10.60;58.67
52656;SHT85;35474;51.032;6.998;2024-03-23T13:39:09;11.20;58.68
52656;SHT85;35474;51.032;6.998;2024-03-23T13:41:38;11.62;58.28
52656;SHT85;35474;51.032;6.998;2024-03-23T13:44:08;11.68;57.77
52656;SHT85;35474;51.032;6.998;2024-03-23T13:46:37;11.21;58.56
52656;SHT85;35474;51.032;6.998;2024-03-23T13:49:29;10.14;59.78
52656;SHT85;35474;51.032;6.998;2024-03-23T13:51:56;10.07;60.53
52656;SHT85;35474;51.032;6.998;2024-03-23T13:54:23;10.63;58.58
52656;SHT85;35474;51.032;6.998;2024-03-23T13:56:53;10.04;60.00
52656;SHT85;35474;51.032;6.998;2024-03-23T13:59:22;9.57;60.83
52656;SHT85;35474;51.032;6.998;2024-03-23T14:01:49;9.52;61.64
52656;SHT85;35474;51.032;6.998;2024-03-23T14:04:16;9.49;62.42
52656;SHT85;35474;51.032;6.998;2024-03-23T14:06:42;9.10;59.36
52656;SHT85;35474;51.032;6.998;2024-03-23T14:09:13;8.97;58.66
52656;SHT85;35474;51.032;6.998;2024-03-23T14:11:40;8.67;56.83
52656;SHT85;35474;51.032;6.998;2024-03-23T14:14:08;8.63;56.83
52656;SHT85;35474;51.032;6.998;2024-03-23T14:16:34;8.63;57.39
52656;SHT85;35474;51.032;6.998;2024-03-23T14:19:00;8.82;58.13
52656;SHT85;35474;51.032;6.998;2024-03-23T14:21:25;9.54;57.53
52656;SHT85;35474;51.032;6.998;2024-03-23T14:23:51;9.77;57.30
52656;SHT85;35474;51.032;6.998;2024-03-23T14:26:17;10.55;56.32
52656;SHT85;35474;51.032;6.998;2024-03-23T14:28:42;11.59;55.51
52656;SHT85;35474;51.032;6.998;2024-03-23T14:31:08;11.28;55.79
52656;SHT85;35474;51.032;6.998;2024-03-23T14:33:37;11.24;55.99
52656;SHT85;35474;51.032;6.998;2024-03-23T14:36:04;11.45;55.90
52656;SHT85;35474;51.032;6.998;2024-03-23T14:38:30;11.21;56.02
52656;SHT85;35474;51.032;6.998;2024-03-23T14:41:01;10.21;57.67
52656;SHT85;35474;51.032;6.998;2024-03-23T14:43:28;10.14;59.03
52656;SHT85;35474;51.032;6.998;2024-03-23T14:46:10;9.60;57.46
52656;SHT85;35474;51.032;6.998;2024-03-23T14:48:41;9.40;59.40
52656;SHT85;35474;51.032;6.998;2024-03-23T14:51:08;9.28;60.21
52656;SHT85;35474;51.032;6.998;2024-03-23T14:53:34;8.91;60.94
52656;SHT85;35474;51.032;6.998;2024-03-23T14:56:01;8.50;61.80
52656;SHT85;35474;51.032;6.998;2024-03-23T14:58:28;8.40;62.22
52656;SHT85;35474;51.032;6.998;2024-03-23T15:01:03;8.40;63.49
52656;SHT85;35474;51.032;6.998;2024-03-23T15:03:30;8.52;63.24
52656;SHT85;35474;51.032;6.998;2024-03-23T15:05:56;7.92;64.36
52656;SHT85;35474;51.032;6.998;2024-03-23T15:08:24;7.91;64.69
52656;SHT85;35474;51.032;6.998;2024-03-23T15:10:49;7.89;64.52
52656;SHT85;35474;51.032;6.998;2024-03-23T15:13:15;7.93;63.26
52656;SHT85;35474;51.032;6.998;2024-03-23T15:15:41;7.78;63.54
52656;SHT85;35474;51.032;6.998;2024-03-23T15:18:12;7.82;64.31
52656;SHT85;35474;51.032;6.998;2024-03-23T15:20:38;7.92;63.47
52656;SHT85;35474;51.032;6.998;2024-03-23T15:23:04;8.30;62.57
52656;SHT85;35474;51.032;6.998;2024-03-23T15:25:30;8.77;62.23
52656;SHT85;35474;51.032;6.998;2024-03-23T15:27:56;9.10;61.62
52656;SHT85;35474;51.032;6.998;2024-03-23T15:30:23;9.52;61.08
52656;SHT85;35474;51.032;6.998;2024-03-23T15:32:49;9.28;61.17
52656;SHT85;35474;51.032;6.998;2024-03-23T15:35:14;9.54;61.60
52656;SHT85;35474;51.032;6.998;2024-03-23T15:37:40;9.36;61.74
52656;SHT85;35474;51.032;6.998;2024-03-23T15:40:06;9.33;61.64
52656;SHT85;35474;51.032;6.998;2024-03-23T15:42:32;9.44;61.26
52656;SHT85;35474;51.032;6.998;2024-03-23T15:44:57;9.50;61.66
52656;SHT85;35474;51.032;6.998;2024-03-23T15:47:25;9.66;61.75
52656;SHT85;35474;51.032;6.998;2024-03-23T15:49:51;9.35;62.92
52656;SHT85;35474;51.032;6.998;2024-03-23T15:52:18;9.42;61.84
52656;SHT85;35474;51.032;6.998;2024-03-23T15:54:44;8.92;63.70
52656;SHT85;35474;51.032;6.998;2024-03-23T15:57:10;8.46;65.33
52656;SHT85;35474;51.032;6.998;2024-03-23T15:59:35;8.13;65.90
52656;SHT85;35474;51.032;6.998;2024-03-23T16:02:01;8.23;66.34
52656;SHT85;35474;51.032;6.998;2024-03-23T16:04:28;8.07;66.41
52656;SHT85;35474;51.032;6.998;2024-03-23T16:06:53;7.81;68.02
52656;SHT85;35474;51.032;6.998;2024-03-23T16:09:19;7.74;68.46
52656;SHT85;35474;51.032;6.998;2024-03-23T16:11:45;7.89;67.96
52656;SHT85;35474;51.032;6.998;2024-03-23T16:14:11;7.89;67.51
52656;SHT85;35474;51.032;6.998;2024-03-23T16:16:36;7.98;67.82
52656;SHT85;35474;51.032;6.998;2024-03-23T16:19:02;8.06;67.86
52656;SHT85;35474;51.032;6.998;2024-03-23T16:21:28;8.16;68.30
52656;SHT85;35474;51.032;6.998;2024-03-23T16:23:53;8.05;69.34
52656;SHT85;35474;51.032;6.998;2024-03-23T16:26:19;8.23;66.80
52656;SHT85;35474;51.032;6.998;2024-03-23T16:28:44;8.42;65.59
52656;SHT85;35474;51.032;6.998;2024-03-23T16:31:11;8.50;64.22
52656;SHT85;35474;51.032;6.998;2024-03-23T16:33:36;8.97;63.53
52656;SHT85;35474;51.032;6.998;2024-03-23T16:36:06;8.78;64.15
52656;SHT85;35474;51.032;6.998;2024-03-23T16:38:40;8.61;64.48
52656;SHT85;35474;51.032;6.998;2024-03-23T16:41:10;8.26;64.76
52656;SHT85;35474;51.032;6.998;2024-03-23T16:43:42;7.95;64.76
52656;SHT85;35474;51.032;6.998;2024-03-23T16:46:09;8.05;65.13
52656;SHT85;35474;51.032;6.998;2024-03-23T16:48:37;8.28;64.99
52656;SHT85;35474;51.032;6.998;2024-03-23T16:51:07;8.60;64.89
52656;SHT85;35474;51.032;6.998;2024-03-23T16:53:34;8.23;65.72
52656;SHT85;35474;51.032;6.998;2024-03-23T16:58:30;7.74;67.66